createdAt,value
2018-10-07T00:01:59.302Z,13.03
2018-10-07T00:04:27.306Z,12.97
2018-10-07T00:06:55.283Z,10.07
2018-10-07T00:09:23.242Z,13.00
2018-10-07T00:11:51.898Z,9.47
2018-10-07T00:14:19.930Z,11.17
2018-10-07T00:16:47.951Z,11.63
2018-10-07T00:19:16.918Z,10.83
2018-10-07T00:21:45.193Z,10.97
2018-10-07T00:24:13.163Z,9.83
2018-10-07T00:26:41.414Z,10.30
2018-10-07T00:29:09.367Z,9.90
2018-10-07T00:31:42.662Z,11.73
2018-10-07T00:34:10.679Z,10.57
2018-10-07T00:36:38.573Z,10.90
2018-10-07T00:39:09.885Z,11.33
2018-10-07T00:41:37.820Z,12.93
2018-10-07T00:44:05.957Z,11.63
2018-10-07T00:46:34.550Z,12.47
2018-10-07T00:49:02.734Z,12.57
2018-10-07T00:51:30.779Z,12.77
2018-10-07T00:53:58.758Z,13.53
2018-10-07T00:56:27.120Z,14.60
2018-10-07T00:58:55.145Z,14.23
2018-10-07T01:01:23.902Z,14.13
2018-10-07T01:03:52.231Z,13.63
2018-10-07T01:06:20.233Z,12.60
2018-10-07T01:08:48.264Z,14.20
2018-10-07T01:11:16.312Z,14.87
2018-10-07T01:13:44.368Z,14.33
2018-10-07T01:16:12.453Z,15.90
2018-10-07T01:18:40.497Z,16.57
2018-10-07T01:21:08.559Z,14.47
2018-10-07T01:23:36.605Z,15.07
2018-10-07T01:26:04.567Z,15.70
2018-10-07T01:28:32.534Z,15.00
2018-10-07T01:31:00.558Z,16.97
2018-10-07T01:33:29.398Z,17.20
2018-10-07T01:35:57.486Z,16.77
2018-10-07T01:38:26.019Z,17.03
2018-10-07T01:40:53.947Z,16.93
2018-10-07T01:43:21.925Z,16.63
2018-10-07T01:45:50.029Z,15.23
2018-10-07T01:48:18.026Z,15.70
2018-10-07T01:50:46.015Z,14.87
2018-10-07T01:53:14.048Z,15.27
2018-10-07T01:55:42.062Z,16.60
2018-10-07T01:58:09.952Z,13.63
2018-10-07T02:00:38.947Z,17.30
2018-10-07T02:03:07.103Z,17.67
2018-10-07T02:05:35.539Z,19.13
2018-10-07T02:08:03.663Z,19.20
2018-10-07T02:10:31.750Z,21.27
2018-10-07T02:12:59.626Z,20.17
2018-10-07T02:15:28.542Z,24.90
2018-10-07T02:17:56.564Z,23.10
2018-10-07T02:20:24.607Z,22.00
2018-10-07T02:22:52.637Z,21.70
2018-10-07T02:25:20.762Z,21.37
2018-10-07T02:27:48.954Z,20.97
2018-10-07T02:30:17.105Z,23.23
2018-10-07T02:32:45.058Z,23.13
2018-10-07T02:35:13.663Z,21.40
2018-10-07T02:37:41.899Z,20.70
2018-10-07T02:40:09.867Z,21.17
2018-10-07T02:42:37.922Z,22.13
2018-10-07T02:45:06.158Z,21.20
2018-10-07T02:47:34.094Z,21.90
2018-10-07T02:50:10.212Z,24.12
2018-10-07T02:52:43.738Z,22.30
2018-10-07T02:55:11.850Z,22.47
2018-10-07T02:57:40.020Z,22.43
2018-10-07T03:00:08.018Z,17.93
2018-10-07T03:02:35.994Z,16.07
2018-10-07T03:05:04.026Z,22.87
2018-10-07T03:07:32.094Z,20.73
2018-10-07T03:09:59.963Z,20.07
2018-10-07T03:12:27.886Z,22.13
2018-10-07T03:14:55.810Z,19.10
2018-10-07T03:17:23.843Z,17.80
2018-10-07T03:19:52.887Z,20.10
2018-10-07T03:22:20.928Z,21.70
2018-10-07T03:24:49.003Z,21.77
2018-10-07T03:27:17.195Z,22.77
2018-10-07T03:29:45.569Z,22.27
2018-10-07T03:32:13.529Z,22.37
2018-10-07T03:34:41.551Z,21.87
2018-10-07T03:37:09.450Z,23.27
2018-10-07T03:39:37.631Z,25.60
2018-10-07T03:42:05.553Z,18.70
2018-10-07T03:44:33.514Z,17.93
2018-10-07T03:47:01.898Z,19.40
2018-10-07T03:49:29.852Z,21.60
2018-10-07T03:51:57.784Z,22.53
2018-10-07T03:54:26.439Z,23.37
2018-10-07T03:56:54.606Z,23.47
2018-10-07T03:59:22.842Z,21.13
2018-10-07T04:01:51.948Z,24.87
2018-10-07T04:04:20.050Z,23.50
2018-10-07T04:06:48.428Z,24.10
2018-10-07T04:09:16.386Z,21.90
2018-10-07T04:11:44.333Z,21.27
2018-10-07T04:14:13.062Z,21.93
2018-10-07T04:16:41.047Z,21.13
2018-10-07T04:19:09.932Z,21.50
2018-10-07T04:25:28.295Z,21.83
2018-10-07T04:27:56.379Z,22.07
2018-10-07T04:30:24.324Z,21.10
2018-10-07T04:32:52.435Z,19.27
2018-10-07T04:35:20.392Z,20.60
2018-10-07T04:37:48.419Z,20.97
2018-10-07T04:40:16.455Z,21.00
2018-10-07T04:42:44.553Z,24.90
2018-10-07T04:45:12.573Z,22.07
2018-10-07T04:47:40.744Z,23.67
2018-10-07T04:50:08.929Z,21.90
2018-10-07T04:52:37.133Z,22.73
2018-10-07T04:55:05.361Z,22.07
2018-10-07T04:57:33.334Z,20.37
2018-10-07T05:00:01.246Z,19.03
2018-10-07T05:02:29.391Z,22.37
2018-10-07T05:04:57.650Z,20.77
2018-10-07T05:07:25.697Z,19.70
2018-10-07T05:10:58.522Z,18.90
2018-10-07T05:13:30.535Z,18.13
2018-10-07T05:16:01.098Z,16.27
2018-10-07T05:18:29.191Z,16.67
2018-10-07T05:20:57.230Z,17.20
2018-10-07T05:23:25.150Z,17.60
2018-10-07T05:25:53.153Z,17.00
2018-10-07T05:28:21.336Z,18.23
2018-10-07T05:30:49.370Z,18.57
2018-10-07T05:33:17.338Z,18.93
2018-10-07T05:35:45.281Z,17.90
2018-10-07T05:38:17.200Z,20.77
2018-10-07T05:40:45.156Z,28.17
2018-10-07T05:43:13.186Z,31.00
2018-10-07T05:45:41.138Z,33.37
2018-10-07T05:48:09.958Z,33.47
2018-10-07T05:50:38.181Z,33.30
2018-10-07T05:53:07.362Z,29.57
2018-10-07T05:55:36.531Z,33.30
2018-10-07T05:58:05.381Z,31.03
2018-10-07T06:00:35.536Z,31.80
2018-10-07T06:03:13.009Z,29.27
2018-10-07T06:05:41.274Z,28.17
2018-10-07T06:08:09.900Z,27.77
2018-10-07T06:10:38.570Z,28.70
2018-10-07T06:13:06.711Z,26.83
2018-10-07T06:15:37.103Z,24.10
2018-10-07T06:18:05.380Z,23.10
2018-10-07T06:20:34.805Z,24.93
2018-10-07T06:23:02.875Z,23.50
2018-10-07T06:25:31.310Z,24.37
2018-10-07T06:27:59.346Z,24.17
2018-10-07T06:30:28.007Z,20.70
2018-10-07T06:32:55.960Z,21.77
2018-10-07T06:35:24.663Z,20.13
2018-10-07T06:37:53.289Z,20.70
2018-10-07T06:40:21.654Z,21.13
2018-10-07T06:42:49.810Z,20.33
2018-10-07T06:45:17.899Z,20.47
2018-10-07T06:47:46.051Z,18.90
2018-10-07T06:50:14.123Z,22.60
2018-10-07T06:52:42.417Z,19.73
2018-10-07T06:55:10.404Z,20.10
2018-10-07T06:57:38.442Z,19.77
2018-10-07T07:00:07.403Z,18.93
2018-10-07T07:02:35.482Z,17.20
2018-10-07T07:05:03.657Z,19.37
2018-10-07T07:07:31.685Z,19.30
2018-10-07T07:09:59.731Z,20.40
2018-10-07T07:12:27.694Z,19.47
2018-10-07T07:14:56.154Z,18.90
2018-10-07T07:17:24.142Z,19.27
2018-10-07T07:19:52.244Z,19.00
2018-10-07T07:22:20.247Z,17.27
2018-10-07T07:24:48.251Z,17.83
2018-10-07T07:30:37.312Z,16.60
2018-10-07T07:33:05.397Z,16.33
2018-10-07T07:35:33.608Z,16.80
2018-10-07T07:38:01.614Z,15.07
2018-10-07T07:40:30.151Z,15.10
2018-10-07T07:42:58.294Z,15.67
2018-10-07T07:45:26.346Z,20.17
2018-10-07T07:47:54.459Z,19.33
2018-10-07T07:50:22.438Z,14.40
2018-10-07T07:52:50.563Z,14.77
2018-10-07T07:55:18.606Z,12.53
2018-10-07T07:57:46.587Z,12.57
2018-10-07T08:00:29.380Z,13.00
2018-10-07T08:02:58.484Z,13.00
2018-10-07T08:05:26.448Z,11.10
2018-10-07T08:07:54.383Z,12.73
2018-10-07T08:10:22.386Z,14.40
2018-10-07T08:12:50.482Z,13.83
2018-10-07T08:15:18.559Z,12.67
2018-10-07T08:17:46.564Z,12.93
2018-10-07T08:20:14.611Z,12.43
2018-10-07T08:22:42.658Z,11.77
2018-10-07T08:25:10.649Z,12.03
2018-10-07T08:27:39.043Z,12.80
2018-10-07T08:30:07.376Z,11.47
2018-10-07T08:32:35.477Z,12.97
2018-10-07T08:35:03.656Z,11.93
2018-10-07T08:37:31.653Z,12.50
2018-10-07T08:39:59.760Z,13.13
2018-10-07T08:42:27.837Z,12.90
2018-10-07T08:44:55.961Z,12.27
2018-10-07T08:47:24.156Z,12.70
2018-10-07T08:49:53.233Z,12.60
2018-10-07T08:52:21.151Z,13.37
2018-10-07T08:54:49.311Z,12.73
2018-10-07T08:57:17.317Z,12.47
2018-10-07T08:59:45.246Z,13.40
2018-10-07T09:02:13.395Z,12.77
2018-10-07T09:04:41.418Z,10.80
2018-10-07T09:07:09.466Z,12.10
2018-10-07T09:09:37.450Z,11.27
2018-10-07T09:12:05.680Z,11.40
2018-10-07T09:14:33.854Z,11.17
2018-10-07T09:17:01.877Z,11.33
2018-10-07T09:19:29.830Z,11.83
2018-10-07T09:21:57.924Z,12.10
2018-10-07T09:24:25.834Z,11.17
2018-10-07T09:26:53.826Z,11.47
2018-10-07T09:29:22.133Z,10.93
2018-10-07T09:31:50.312Z,11.90
2018-10-07T09:34:18.406Z,10.97
2018-10-07T09:36:46.439Z,11.07
2018-10-07T09:39:14.621Z,9.47
2018-10-07T09:41:42.623Z,11.10
2018-10-07T09:44:10.579Z,10.23
2018-10-07T09:46:40.138Z,10.03
2018-10-07T09:49:08.401Z,9.77
2018-10-07T09:51:38.559Z,9.33
2018-10-07T09:54:06.616Z,8.03
2018-10-07T09:56:34.678Z,7.17
2018-10-07T09:59:02.727Z,7.93
2018-10-07T10:01:30.977Z,8.17
2018-10-07T10:04:05.397Z,8.27
2018-10-07T10:06:33.423Z,8.33
2018-10-07T10:09:01.303Z,9.10
2018-10-07T10:11:30.179Z,7.40
2018-10-07T10:13:58.213Z,7.40
2018-10-07T10:16:33.453Z,6.83
2018-10-07T10:19:37.990Z,6.87
2018-10-07T10:24:18.507Z,6.70
2018-10-07T10:27:58.822Z,6.30
2018-10-07T10:30:36.654Z,6.90
2018-10-07T10:33:12.556Z,6.27
2018-10-07T10:36:54.871Z,6.20
2018-10-07T10:39:33.871Z,6.00
2018-10-07T10:42:14.608Z,5.60
2018-10-07T10:44:46.871Z,5.53
2018-10-07T10:47:25.678Z,5.43
2018-10-07T10:49:58.230Z,5.47
2018-10-07T10:52:31.226Z,4.77
2018-10-07T10:56:10.156Z,5.23
2018-10-07T10:59:48.518Z,4.80
2018-10-07T11:04:34.167Z,5.00
2018-10-07T11:07:11.480Z,4.90
2018-10-07T11:09:52.510Z,4.83
2018-10-07T11:14:35.520Z,4.13
2018-10-07T11:17:13.210Z,4.13
2018-10-07T11:19:49.352Z,5.00
2018-10-07T11:24:27.238Z,4.90
2018-10-07T11:27:01.051Z,5.60
2018-10-07T11:31:42.208Z,4.10
2018-10-07T11:34:23.768Z,3.50
2018-10-07T11:39:05.393Z,3.40
2018-10-07T11:41:44.624Z,3.47
2018-10-07T11:44:21.163Z,3.90
2018-10-07T11:47:01.904Z,3.43
2018-10-07T11:49:36.607Z,2.83
2018-10-07T11:53:16.524Z,3.33
2018-10-07T11:55:44.706Z,3.70
2018-10-07T11:58:12.815Z,3.10
2018-10-07T12:00:40.908Z,3.33
2018-10-07T12:03:09.524Z,3.30
2018-10-07T12:05:37.705Z,3.20
2018-10-07T12:08:05.889Z,3.20
2018-10-07T12:10:34.400Z,2.70
2018-10-07T12:13:02.372Z,3.00
2018-10-07T12:15:30.660Z,3.03
2018-10-07T12:17:59.117Z,2.70
2018-10-07T12:20:27.581Z,3.23
2018-10-07T12:22:55.582Z,2.73
2018-10-07T12:25:23.632Z,3.40
2018-10-07T12:27:53.099Z,3.30
2018-10-07T12:30:21.073Z,3.83
2018-10-07T12:32:49.171Z,4.00
2018-10-07T12:35:17.234Z,3.13
2018-10-07T12:37:45.261Z,3.37
2018-10-07T12:40:13.237Z,3.40
2018-10-07T12:42:41.327Z,3.47
2018-10-07T12:45:09.282Z,3.40
2018-10-07T12:47:37.595Z,2.93
2018-10-07T12:50:05.719Z,2.93
2018-10-07T12:52:34.933Z,3.13
2018-10-07T12:55:02.977Z,3.00
2018-10-07T12:57:30.965Z,3.10
2018-10-07T12:59:58.999Z,3.40
2018-10-07T13:02:27.827Z,3.53
2018-10-07T13:04:56.007Z,4.20
2018-10-07T13:07:24.084Z,3.20
2018-10-07T13:09:52.630Z,3.30
2018-10-07T13:12:20.682Z,3.73
2018-10-07T13:14:50.514Z,4.07
2018-10-07T13:17:18.714Z,3.73
2018-10-07T13:19:47.911Z,3.67
2018-10-07T13:22:15.923Z,3.97
2018-10-07T13:24:43.883Z,4.03
2018-10-07T13:27:12.148Z,4.00
2018-10-07T13:29:40.351Z,4.07
2018-10-07T13:32:08.313Z,3.90
2018-10-07T13:34:36.359Z,3.70
2018-10-07T13:37:04.410Z,4.00
2018-10-07T13:39:32.403Z,3.73
2018-10-07T13:42:00.330Z,4.10
2018-10-07T13:44:28.356Z,4.03
2018-10-07T13:46:56.384Z,3.90
2018-10-07T13:49:24.364Z,3.80
2018-10-07T13:51:52.455Z,4.03
2018-10-07T13:54:20.516Z,3.90
2018-10-07T13:56:48.527Z,4.23
2018-10-07T13:59:16.539Z,6.40
2018-10-07T14:01:44.574Z,7.03
2018-10-07T14:04:13.644Z,10.33
2018-10-07T14:06:41.714Z,5.57
2018-10-07T14:09:10.033Z,3.57
2018-10-07T14:14:13.590Z,2.97
2018-10-07T14:16:43.146Z,2.83
2018-10-07T14:19:11.169Z,3.70
2018-10-07T14:21:40.673Z,3.57
2018-10-07T14:24:09.781Z,3.30
2018-10-07T14:26:37.842Z,3.43
2018-10-07T14:29:06.059Z,4.20
2018-10-07T14:31:35.699Z,4.13
2018-10-07T14:34:03.877Z,3.43
2018-10-07T14:36:31.960Z,3.13
2018-10-07T14:38:59.936Z,3.10
2018-10-07T14:41:28.024Z,3.53
2018-10-07T14:43:56.045Z,4.07
2018-10-07T14:46:24.036Z,2.80
2018-10-07T14:48:52.088Z,3.57
2018-10-07T14:51:20.065Z,3.53
2018-10-07T14:53:48.467Z,3.03
2018-10-07T14:56:17.275Z,3.50
2018-10-07T14:58:45.396Z,3.13
2018-10-07T15:01:13.518Z,3.27
2018-10-07T15:03:41.637Z,3.47
2018-10-07T15:06:09.807Z,3.00
2018-10-07T15:08:37.956Z,3.33
2018-10-07T15:11:05.966Z,3.47
2018-10-07T15:13:34.186Z,2.60
2018-10-07T15:16:02.209Z,3.40
2018-10-07T15:18:30.123Z,3.57
2018-10-07T15:20:58.556Z,4.03
2018-10-07T15:23:26.746Z,3.87
2018-10-07T15:25:54.894Z,3.23
2018-10-07T15:28:22.863Z,4.23
2018-10-07T15:30:51.219Z,3.73
2018-10-07T15:33:19.330Z,3.93
2018-10-07T15:35:47.283Z,4.33
2018-10-07T15:38:15.191Z,4.20
2018-10-07T15:40:43.455Z,3.83
2018-10-07T15:43:11.736Z,4.73
2018-10-07T15:45:40.646Z,4.77
2018-10-07T15:48:08.613Z,4.93
2018-10-07T15:50:37.027Z,5.43
2018-10-07T15:53:04.976Z,5.10
2018-10-07T15:55:33.460Z,5.17
2018-10-07T15:58:01.461Z,5.77
2018-10-07T16:00:30.193Z,5.43
2018-10-07T16:02:58.151Z,6.30
2018-10-07T16:05:26.038Z,6.07
2018-10-07T16:07:54.506Z,5.77
2018-10-07T16:10:25.301Z,5.00
2018-10-07T16:12:53.378Z,4.63
2018-10-07T16:15:21.373Z,5.70
2018-10-07T16:17:49.354Z,5.23
2018-10-07T16:20:17.425Z,6.07
2018-10-07T16:22:45.582Z,5.80
2018-10-07T16:25:13.490Z,5.83
2018-10-07T16:27:41.509Z,6.27
2018-10-07T16:30:09.516Z,6.80
2018-10-07T16:32:37.450Z,7.27
2018-10-07T16:35:05.477Z,7.63
2018-10-07T16:37:33.494Z,7.20
2018-10-07T16:40:01.456Z,8.17
2018-10-07T16:42:29.495Z,7.27
2018-10-07T16:44:57.494Z,9.17
2018-10-07T16:47:25.495Z,11.13
2018-10-07T16:49:53.531Z,12.17
2018-10-07T16:52:21.522Z,14.50
2018-10-07T16:54:49.765Z,12.53
2018-10-07T16:57:17.766Z,15.80
2018-10-07T16:59:45.666Z,14.63
2018-10-07T17:02:13.913Z,14.50
2018-10-07T17:04:41.980Z,15.10
2018-10-07T17:07:09.990Z,14.73
2018-10-07T17:09:38.041Z,14.07
2018-10-07T17:12:06.605Z,11.63
2018-10-07T17:14:34.675Z,11.07
2018-10-07T17:17:02.674Z,9.47
2018-10-07T17:19:30.863Z,10.27
2018-10-07T17:21:59.234Z,10.33
2018-10-07T17:24:27.252Z,10.27
2018-10-07T17:26:56.048Z,9.53
2018-10-07T17:29:24.233Z,8.73
2018-10-07T17:31:52.334Z,7.20
2018-10-07T17:34:20.373Z,7.27
2018-10-07T17:36:48.463Z,8.43
2018-10-07T17:39:16.592Z,6.67
2018-10-07T17:41:44.586Z,4.77
2018-10-07T17:44:13.588Z,7.90
2018-10-07T17:46:41.589Z,7.17
2018-10-07T17:49:09.710Z,6.47
2018-10-07T17:51:39.117Z,6.43
2018-10-07T17:54:07.187Z,6.90
2018-10-07T17:56:35.259Z,7.97
2018-10-07T17:59:03.443Z,7.10
2018-10-07T18:01:32.094Z,7.87
2018-10-07T18:04:00.105Z,6.43
2018-10-07T18:06:28.070Z,7.53
2018-10-07T18:08:56.082Z,6.30
2018-10-07T18:11:26.457Z,6.13
2018-10-07T18:13:54.464Z,6.07
2018-10-07T18:16:22.583Z,5.17
2018-10-07T18:18:50.587Z,5.93
2018-10-07T18:21:18.840Z,6.60
2018-10-07T18:23:46.882Z,7.03
2018-10-07T18:26:15.065Z,6.03
2018-10-07T18:28:43.035Z,6.57
2018-10-07T18:31:11.083Z,6.23
2018-10-07T18:33:39.082Z,6.63
2018-10-07T18:36:07.156Z,6.67
2018-10-07T18:38:35.140Z,6.33
2018-10-07T18:41:03.398Z,7.57
2018-10-07T18:43:31.423Z,6.80
2018-10-07T18:45:59.388Z,6.00
2018-10-07T18:48:27.970Z,6.17
2018-10-07T18:50:56.188Z,6.23
2018-10-07T18:53:24.196Z,5.60
2018-10-07T18:55:52.221Z,5.80
2018-10-07T18:58:20.261Z,6.33
2018-10-07T19:00:48.284Z,7.23
2018-10-07T19:03:16.235Z,7.40
2018-10-07T19:05:44.387Z,7.77
2018-10-07T19:08:12.581Z,8.67
2018-10-07T19:10:41.238Z,9.07
2018-10-07T19:13:09.188Z,8.53
2018-10-07T19:15:37.343Z,8.60
2018-10-07T19:18:05.570Z,9.17
2018-10-07T19:20:33.731Z,8.67
2018-10-07T19:23:01.732Z,8.77
2018-10-07T19:25:29.901Z,8.47
2018-10-07T19:27:57.874Z,9.40
2018-10-07T19:30:25.851Z,7.77
2018-10-07T19:32:53.869Z,9.67
2018-10-07T19:35:21.826Z,8.50
2018-10-07T19:37:50.699Z,7.50
2018-10-07T19:40:18.896Z,7.10
2018-10-07T19:42:46.984Z,6.93
2018-10-07T19:45:15.213Z,7.57
2018-10-07T19:47:43.162Z,6.30
2018-10-07T19:50:11.180Z,6.00
2018-10-07T19:52:39.356Z,6.10
2018-10-07T19:55:08.090Z,6.77
2018-10-07T19:57:36.447Z,6.93
2018-10-07T20:00:05.416Z,5.97
2018-10-07T20:02:33.312Z,6.90
2018-10-07T20:05:01.195Z,6.10
2018-10-07T20:07:29.256Z,6.87
2018-10-07T20:09:57.889Z,6.97
2018-10-07T20:12:25.964Z,7.47
2018-10-07T20:14:53.873Z,7.63
2018-10-07T20:17:21.803Z,6.70
2018-10-07T20:19:49.822Z,7.37
2018-10-07T20:22:18.268Z,6.77
2018-10-07T20:24:46.444Z,8.07
2018-10-07T20:27:14.410Z,7.80
2018-10-07T20:29:42.497Z,6.17
2018-10-07T20:32:10.707Z,7.60
2018-10-07T20:34:38.665Z,8.03
2018-10-07T20:37:06.763Z,7.43
2018-10-07T20:39:34.702Z,8.47
2018-10-07T20:42:02.613Z,8.40
2018-10-07T20:44:30.626Z,8.50
2018-10-07T20:46:58.963Z,8.40
2018-10-07T20:49:26.948Z,8.23
2018-10-07T20:51:55.057Z,8.30
2018-10-07T20:54:23.114Z,7.73
2018-10-07T20:56:51.037Z,7.73
2018-10-07T20:59:20.031Z,7.27
2018-10-07T21:01:50.144Z,8.10
2018-10-07T21:04:18.155Z,6.70
2018-10-07T21:06:46.177Z,7.70
2018-10-07T21:09:14.700Z,6.63
2018-10-07T21:11:43.158Z,7.30
2018-10-07T21:14:11.110Z,7.33
2018-10-07T21:16:39.012Z,6.73
2018-10-07T21:19:07.035Z,7.30
2018-10-07T21:21:35.072Z,7.30
2018-10-07T21:24:03.408Z,6.90
2018-10-07T21:26:31.406Z,7.13
2018-10-07T21:29:00.217Z,7.23
2018-10-07T21:31:29.354Z,7.33
2018-10-07T21:33:57.364Z,6.90
2018-10-07T21:36:25.287Z,7.27
2018-10-07T21:38:53.225Z,7.27
2018-10-07T21:41:21.229Z,6.93
2018-10-07T21:43:49.286Z,7.60
2018-10-07T21:46:17.254Z,7.33
2018-10-07T21:48:45.599Z,6.90
2018-10-07T21:51:16.114Z,6.53
2018-10-07T21:53:44.572Z,8.23
2018-10-07T21:56:13.151Z,7.50
2018-10-07T21:58:41.090Z,7.97
2018-10-07T22:01:09.042Z,7.80
2018-10-07T22:03:41.170Z,8.13
2018-10-07T22:06:09.377Z,7.80
2018-10-07T22:08:37.457Z,8.10
2018-10-07T22:11:05.946Z,7.70
2018-10-07T22:13:34.059Z,7.77
2018-10-07T22:16:01.995Z,7.63
2018-10-07T22:18:31.654Z,6.90
2018-10-07T22:20:59.718Z,7.60
2018-10-07T22:23:27.734Z,8.33
2018-10-07T22:25:55.718Z,7.37
2018-10-07T22:28:23.653Z,8.53
2018-10-07T22:30:51.685Z,8.50
2018-10-07T22:33:19.730Z,8.90
2018-10-07T22:35:47.877Z,7.90
2018-10-07T22:38:16.792Z,8.27
2018-10-07T22:40:44.838Z,7.60
2018-10-07T22:43:12.772Z,7.37
2018-10-07T22:45:40.718Z,9.00
2018-10-07T22:48:08.678Z,8.73
2018-10-07T22:50:36.682Z,8.27
2018-10-07T22:53:04.750Z,8.03
2018-10-07T22:55:32.779Z,5.70
2018-10-07T22:58:00.831Z,7.07
2018-10-07T23:00:28.883Z,7.97
2018-10-07T23:02:56.823Z,5.80
2018-10-07T23:05:24.809Z,5.40
2018-10-07T23:07:52.763Z,5.60
2018-10-07T23:10:20.848Z,5.70
2018-10-07T23:12:48.828Z,6.77
2018-10-07T23:15:16.865Z,7.70
2018-10-07T23:17:44.785Z,6.33
2018-10-07T23:20:12.951Z,7.10
2018-10-07T23:22:41.107Z,7.53
2018-10-07T23:25:09.361Z,7.23
2018-10-07T23:27:37.426Z,8.03
2018-10-07T23:30:05.493Z,8.23
2018-10-07T23:32:33.440Z,8.73
2018-10-07T23:35:01.395Z,8.40
2018-10-07T23:37:29.400Z,9.43
2018-10-07T23:39:57.424Z,8.83
2018-10-07T23:42:25.447Z,8.63
2018-10-07T23:44:53.367Z,8.77
2018-10-07T23:47:21.467Z,9.37
2018-10-07T23:49:49.545Z,9.10
2018-10-07T23:52:17.493Z,9.93
2018-10-07T23:54:45.657Z,9.43
2018-10-07T23:57:13.676Z,9.20
2018-10-07T23:59:41.702Z,9.90
